Aeroporto :
LOGIN :

Iscrizione | Disclaimer

   EN    FR    IT 

 










Sommario :    VFR   VFR Marginale   IFR   IFR Intensivo   IFR Molto Intensivo
Visibilità : 
Base nubi : 
>= 8 km
>= 3000ft
5 / 8 km
1000 / 3000 ft
1500m / 5 km
500 / 1000 ft
800 / 1500m
200 / 500 ft
< 800m
< 200 ft
Simboli :   Temporali  Nebbia  Neve Forte  Precipitazioni Forti  Vento > 20 kt
SIGMETs :   Varie  Temporali  Ghiacco  Turbolenza  Onda orograficha  Ceneri Vulcaniche






- Altitudine del aeroporto : 1682 ft
- Codice IATA : VIT


LEVT - Vitoria Gasteiz

ULTIMO METAR :
  • 181100Z 05001KT 9999 FEW014 BKN022 16/11 Q1016

METARs OBSOLETI :
  • 181030Z VRB01KT 9999 SCT010 SCT020 15/12 Q1017
  • 181000Z 25001KT 9999 SCT010 BKN020 14/12 Q1017
  • 180930Z VRB01KT 9999 SCT009 BKN020 14/12 Q1017
  • 180900Z 00000KT 9999 SCT008 BKN016 13/12 Q1017
  • 180830Z VRB02KT 9999 SCT008 BKN016 13/12 Q1017

TAF TAF LEVT
Valido dal 18 a 06 ore il 19 a 06 ore UTC


180500Z 1806/1906 VRB04KT 9999 SCT020 BKN040 TX20/1815Z TN11/1906Z
PROB30
TEMPO 1806/1815 01010KT
TEMPO 1902/1906 RA



MetMap, La meteo Aeronautica in un colpo d'occhio ! - Copyright ORBIFLY Dicembre 2007 - Disclaimer

ORBIFLY MET'MAP TEAM :

Programmazione e sviluppo : Alexandra Zaïnal
Concezione e sviluppo : Baudouin d'Aumeries
Co-Programmazione e sviluppo : Marc-Olivier Méhu
Supporto tecnico e logistico : Manuel Goepfert
Aiuto per la traduzione : Arnaldo La Scala

Contatto : metmap@orbifly.com




FONTI E CREDITI :

   NOAA